Time;durP1;ratioP1;P1;durP2;ratioP2;P2;SDS_P1;SDS_P2;PMS_P1;PMS_P2;Temp;Humidity;BMP_temperature;BMP_pressure;BME280_temperature;BME280_humidity;BME280_pressure;Samples;Min_cycle;Max_cycle;Signal;HPM_P1;HPM_P2
2021/03/02 00:01:32;;;;;;;23.58;14.30;;;3.00;99.90;;;;;;5049868;28;20200;-81
2021/03/02 00:03:58;;;;;;;21.65;13.77;;;3.10;99.90;;;;;;5052438;28;20230;-81
2021/03/02 00:06:25;;;;;;;24.65;13.35;;;3.20;99.90;;;;;;5051324;28;20199;-80
2021/03/02 00:08:51;;;;;;;27.52;14.73;;;3.10;99.90;;;;;;5051064;28;20232;-83
2021/03/02 00:11:18;;;;;;;29.00;13.27;;;3.10;99.90;;;;;;5048775;28;20712;-84
2021/03/02 00:13:44;;;;;;;27.98;15.65;;;3.10;99.90;;;;;;5044251;28;20223;-81
2021/03/02 00:16:11;;;;;;;24.48;14.50;;;3.00;99.90;;;;;;5050089;28;20215;-82
2021/03/02 00:18:48;;;;;;;24.38;14.50;;;2.90;99.90;;;;;;5049329;28;20228;-84
2021/03/02 00:21:17;;;;;;;22.60;13.30;;;3.00;99.90;;;;;;5050469;28;20195;-83
2021/03/02 00:23:52;;;;;;;22.23;12.75;;;3.00;99.90;;;;;;5049390;28;20199;-82
2021/03/02 00:26:20;;;;;;;26.13;15.70;;;2.90;99.90;;;;;;5044385;28;20252;-83
2021/03/02 00:28:50;;;;;;;27.67;15.43;;;2.90;99.90;;;;;;5048513;28;20227;-82
2021/03/02 00:31:17;;;;;;;23.63;15.00;;;2.80;99.90;;;;;;5050519;28;20231;-82
2021/03/02 00:33:47;;;;;;;23.48;12.45;;;2.80;99.90;;;;;;5047343;28;20234;-81
2021/03/02 00:36:13;;;;;;;27.75;15.50;;;2.80;99.90;;;;;;5057827;28;20172;-79
2021/03/02 00:38:39;;;;;;;22.75;14.27;;;2.80;99.90;;;;;;5058077;28;20208;-80
2021/03/02 00:41:05;;;;;;;26.55;13.82;;;2.80;99.90;;;;;;5056697;28;20322;-83
2021/03/02 00:43:31;;;;;;;22.35;13.68;;;2.80;99.90;;;;;;5051472;28;20211;-83
2021/03/02 00:45:58;;;;;;;24.70;13.48;;;2.70;99.90;;;;;;5045993;28;20204;-82
2021/03/02 00:48:24;;;;;;;22.92;12.52;;;2.70;99.90;;;;;;5046298;28;20230;-85
2021/03/02 00:50:51;;;;;;;29.08;14.88;;;2.70;99.90;;;;;;5047055;28;20214;-82
2021/03/02 00:53:17;;;;;;;22.52;12.02;;;2.70;99.90;;;;;;5042376;28;20204;-82
2021/03/02 00:55:43;;;;;;;22.98;13.52;;;2.70;99.90;;;;;;5040932;28;20638;-82
2021/03/02 00:58:09;;;;;;;19.38;14.70;;;2.70;99.90;;;;;;5041556;28;20232;-83
2021/03/02 01:00:35;;;;;;;27.67;13.55;;;2.60;99.90;;;;;;5048300;28;20210;-82
2021/03/02 01:03:01;;;;;;;27.88;13.82;;;2.50;99.90;;;;;;5040319;28;20666;-81
2021/03/02 01:05:27;;;;;;;25.10;14.60;;;2.50;99.90;;;;;;5040143;28;20210;-83
2021/03/02 01:07:56;;;;;;;23.42;14.82;;;2.50;99.90;;;;;;5038987;28;20274;-81
2021/03/02 01:10:23;;;;;;;23.80;15.30;;;2.60;99.90;;;;;;5038550;28;20544;-81
2021/03/02 01:12:49;;;;;;;25.08;15.75;;;2.60;99.90;;;;;;5038777;28;20211;-81
2021/03/02 01:15:15;;;;;;;28.85;15.30;;;2.70;99.90;;;;;;5041381;28;20639;-81
2021/03/02 01:17:41;;;;;;;32.60;14.48;;;2.60;99.90;;;;;;5039940;28;20227;-81
2021/03/02 01:20:09;;;;;;;23.13;12.50;;;2.60;99.90;;;;;;5041601;28;20204;-82
2021/03/02 01:22:35;;;;;;;23.05;12.80;;;2.60;99.90;;;;;;5040727;28;20715;-82
2021/03/02 01:25:02;;;;;;;27.88;15.43;;;2.50;99.90;;;;;;5040930;28;20208;-82
2021/03/02 01:27:28;;;;;;;24.63;13.52;;;2.40;99.90;;;;;;5040762;28;20231;-82
2021/03/02 01:29:55;;;;;;;25.83;12.73;;;2.40;99.90;;;;;;5040146;28;20732;-82
2021/03/02 01:32:21;;;;;;;29.40;14.05;;;2.50;99.90;;;;;;5039996;28;20211;-82
2021/03/02 01:34:49;;;;;;;25.25;13.63;;;2.50;99.90;;;;;;5039822;28;20219;-83
2021/03/02 01:37:15;;;;;;;20.35;12.93;;;2.60;99.90;;;;;;5039214;28;20310;-82
2021/03/02 01:39:41;;;;;;;20.15;11.82;;;2.60;99.90;;;;;;5040770;28;20271;-81
2021/03/02 01:42:08;;;;;;;24.50;13.82;;;2.40;99.90;;;;;;5052579;28;20204;-83
2021/03/02 01:44:35;;;;;;;26.27;12.90;;;2.40;99.90;;;;;;5054037;28;20559;-82
2021/03/02 01:47:01;;;;;;;22.10;13.95;;;2.40;99.90;;;;;;5054609;28;20211;-82
2021/03/02 01:49:27;;;;;;;21.48;12.75;;;2.40;99.90;;;;;;5045943;28;20203;-82
2021/03/02 01:51:53;;;;;;;24.58;13.80;;;2.30;99.90;;;;;;5042061;28;20230;-82
2021/03/02 01:54:19;;;;;;;24.80;13.88;;;2.30;99.90;;;;;;5040814;28;20216;-82
2021/03/02 01:56:46;;;;;;;24.63;13.80;;;2.30;99.90;;;;;;5039280;28;20199;-82
2021/03/02 01:59:13;;;;;;;24.15;13.88;;;1.30;99.90;;;;;;5038403;28;20199;-82
2021/03/02 02:01:39;;;;;;;23.60;13.05;;;2.10;99.90;;;;;;5038434;28;20234;-82
2021/03/02 02:04:10;;;;;;;29.75;16.08;;;2.10;99.90;;;;;;5039323;28;20211;-82
2021/03/02 02:06:40;;;;;;;27.20;13.63;;;2.10;99.90;;;;;;5039801;28;20184;-82
2021/03/02 02:09:14;;;;;;;35.33;14.88;;;2.10;99.90;;;;;;5039374;28;20265;-83
2021/03/02 02:11:47;;;;;;;25.55;15.60;;;2.20;99.90;;;;;;5039247;28;20283;-82
2021/03/02 02:14:26;;;;;;;22.33;13.80;;;2.20;99.90;;;;;;5039430;28;20582;-83
2021/03/02 02:16:57;;;;;;;31.10;14.35;;;2.40;99.90;;;;;;5039571;28;20246;-82
2021/03/02 02:19:37;;;;;;;26.80;13.68;;;2.30;99.90;;;;;;5039104;28;20191;-81
2021/03/02 02:22:12;;;;;;;23.10;15.45;;;2.20;99.90;;;;;;5038374;28;20199;-83
2021/03/02 02:24:53;;;;;;;21.83;12.65;;;2.30;99.90;;;;;;5040642;28;20183;-81
2021/03/02 02:27:20;;;;;;;22.77;12.55;;;2.30;99.90;;;;;;5042898;28;20709;-82
2021/03/02 02:29:46;;;;;;;21.48;13.30;;;2.30;99.90;;;;;;5043068;28;20214;-81
2021/03/02 02:32:13;;;;;;;28.17;13.82;;;2.40;99.90;;;;;;5042808;28;20200;-81
2021/03/02 02:34:41;;;;;;;23.15;12.98;;;2.50;99.90;;;;;;5042612;28;20545;-82
2021/03/02 02:37:07;;;;;;;26.75;14.00;;;2.40;99.90;;;;;;5042379;28;20281;-83
2021/03/02 02:39:35;;;;;;;23.45;13.18;;;2.40;99.90;;;;;;5041539;28;20204;-82
2021/03/02 02:42:02;;;;;;;28.58;15.65;;;2.30;99.90;;;;;;5042582;28;20200;-82
2021/03/02 02:44:30;;;;;;;24.13;14.18;;;2.20;99.90;;;;;;5042935;28;20489;-82
2021/03/02 02:46:59;;;;;;;22.73;13.63;;;2.20;99.90;;;;;;5042822;28;20208;-82
2021/03/02 02:49:25;;;;;;;23.52;13.75;;;2.30;99.90;;;;;;5043117;28;20196;-82
2021/03/02 02:51:52;;;;;;;24.33;15.40;;;2.30;99.90;;;;;;5043289;28;20239;-82
2021/03/02 02:54:19;;;;;;;24.02;13.98;;;2.40;99.90;;;;;;5042796;28;20220;-82
2021/03/02 02:56:46;;;;;;;26.70;14.27;;;2.20;99.90;;;;;;5043272;28;20227;-83
2021/03/02 02:59:17;;;;;;;26.48;16.25;;;2.30;99.90;;;;;;5043238;28;20208;-82
2021/03/02 03:01:48;;;;;;;24.05;12.93;;;2.20;99.90;;;;;;5042847;28;20195;-82
2021/03/02 03:04:20;;;;;;;24.27;13.30;;;1.80;99.90;;;;;;5042087;28;20208;-83
2021/03/02 03:06:48;;;;;;;21.70;13.13;;;1.80;99.90;;;;;;5041889;28;20192;-81
2021/03/02 03:09:14;;;;;;;23.13;13.40;;;1.90;99.90;;;;;;5041942;28;20226;-82
2021/03/02 03:11:44;;;;;;;26.30;14.05;;;1.80;99.90;;;;;;5045963;28;20693;-82
2021/03/02 03:14:13;;;;;;;24.20;13.30;;;1.80;99.90;;;;;;5042238;28;20244;-82
2021/03/02 03:16:41;;;;;;;24.83;14.50;;;1.80;99.90;;;;;;5042295;28;20269;-83
2021/03/02 03:19:12;;;;;;;20.73;12.00;;;1.90;99.90;;;;;;5042884;28;20220;-82
2021/03/02 03:21:39;;;;;;;21.15;13.50;;;1.80;99.90;;;;;;5043155;28;20230;-81
2021/03/02 03:24:07;;;;;;;25.85;14.10;;;1.80;99.90;;;;;;5043267;28;20199;-81
2021/03/02 03:26:34;;;;;;;27.98;14.40;;;2.00;99.90;;;;;;5042111;28;20208;-83
2021/03/02 03:29:01;;;;;;;30.27;15.55;;;2.10;99.90;;;;;;5048842;28;20220;-81
2021/03/02 03:31:28;;;;;;;25.33;13.98;;;2.30;99.90;;;;;;5040280;28;20250;-81
2021/03/02 03:33:56;;;;;;;28.58;14.40;;;2.10;99.90;;;;;;5039750;28;20212;-82
2021/03/02 03:36:24;;;;;;;22.45;13.43;;;2.40;99.90;;;;;;5039627;28;20577;-81
2021/03/02 03:38:50;;;;;;;22.75;13.90;;;2.10;99.90;;;;;;5050528;28;20275;-82
2021/03/02 03:41:16;;;;;;;26.88;14.05;;;2.10;99.90;;;;;;5047534;28;20203;-83
2021/03/02 03:43:43;;;;;;;26.75;13.85;;;2.10;99.90;;;;;;5041333;28;20218;-83
2021/03/02 03:46:09;;;;;;;27.52;15.00;;;2.10;99.90;;;;;;5042747;28;20211;-82
2021/03/02 03:48:35;;;;;;;24.52;14.90;;;2.10;99.90;;;;;;5040871;28;20223;-82
2021/03/02 03:51:02;;;;;;;30.10;15.45;;;2.10;99.90;;;;;;5039504;28;20207;-82
2021/03/02 03:53:33;;;;;;;25.02;14.23;;;2.00;99.90;;;;;;5040810;28;20204;-83
2021/03/02 03:56:00;;;;;;;22.77;13.90;;;2.00;99.90;;;;;;5040448;28;20622;-81
2021/03/02 03:58:29;;;;;;;24.35;13.30;;;1.90;99.90;;;;;;5041058;28;20219;-82
2021/03/02 04:00:56;;;;;;;21.75;13.65;;;1.80;99.90;;;;;;5040457;28;20686;-82
2021/03/02 04:03:25;;;;;;;22.85;14.40;;;1.80;99.90;;;;;;5040220;28;20211;-81
2021/03/02 04:05:51;;;;;;;19.60;13.40;;;1.80;99.90;;;;;;5040139;28;20199;-82
2021/03/02 04:08:18;;;;;;;23.13;12.77;;;1.90;99.90;;;;;;5070673;22;20224;-78
2021/03/02 04:10:47;;;;;;;23.88;14.85;;;1.80;99.90;;;;;;5047292;28;20208;-79
2021/03/02 04:13:14;;;;;;;23.17;14.23;;;1.80;99.90;;;;;;5041956;28;20212;-79
2021/03/02 04:15:41;;;;;;;22.58;13.25;;;1.80;99.90;;;;;;5040702;28;20307;-79
2021/03/02 04:18:11;;;;;;;23.27;14.75;;;1.70;99.90;;;;;;5038485;28;20220;-79
2021/03/02 04:20:38;;;;;;;22.48;13.85;;;1.70;99.90;;;;;;5049519;28;20203;-80
2021/03/02 04:23:04;;;;;;;20.92;13.18;;;1.60;99.90;;;;;;5056045;28;20195;-78
2021/03/02 04:25:31;;;;;;;26.63;15.55;;;1.70;99.90;;;;;;5037385;28;20613;-78
2021/03/02 04:27:58;;;;;;;28.40;15.98;;;1.50;99.90;;;;;;5036508;28;20274;-80
2021/03/02 04:30:24;;;;;;;23.70;14.75;;;1.50;99.90;;;;;;5038678;28;20204;-79
2021/03/02 04:32:50;;;;;;;24.52;15.43;;;1.50;99.90;;;;;;5039310;28;20211;-80
2021/03/02 04:35:17;;;;;;;24.92;14.10;;;1.50;99.90;;;;;;5038175;28;20223;-80
2021/03/02 04:37:43;;;;;;;22.98;13.38;;;1.50;99.90;;;;;;5038613;28;20254;-80
2021/03/02 04:40:10;;;;;;;30.20;17.03;;;1.50;99.90;;;;;;5037705;28;20437;-79
2021/03/02 04:42:37;;;;;;;25.38;15.02;;;1.40;99.90;;;;;;5037858;28;20445;-79
2021/03/02 04:45:06;;;;;;;28.40;17.15;;;1.50;99.90;;;;;;5042549;28;20199;-78
2021/03/02 04:47:33;;;;;;;28.58;14.40;;;1.60;99.90;;;;;;5056673;28;20231;-78
2021/03/02 04:49:59;;;;;;;24.25;15.88;;;1.50;99.90;;;;;;5056349;28;20201;-77
2021/03/02 04:52:25;;;;;;;34.40;16.63;;;1.50;99.90;;;;;;5048401;28;20204;-79
2021/03/02 04:54:51;;;;;;;28.02;14.65;;;1.30;99.90;;;;;;5040061;28;20572;-80
2021/03/02 04:57:17;;;;;;;29.10;15.05;;;1.00;99.90;;;;;;5040189;28;20238;-79
2021/03/02 04:59:44;;;;;;;27.85;16.38;;;1.20;99.90;;;;;;5043916;28;20254;-80
2021/03/02 05:02:10;;;;;;;24.75;15.80;;;1.20;99.90;;;;;;5052324;28;20207;-80
2021/03/02 05:04:37;;;;;;;34.90;16.95;;;1.10;99.90;;;;;;5051728;28;20437;-80
2021/03/02 05:07:04;;;;;;;28.55;16.23;;;1.00;99.90;;;;;;5054141;28;20207;-79
2021/03/02 05:09:30;;;;;;;25.50;15.65;;;1.00;99.90;;;;;;5054878;28;20223;-79
2021/03/02 05:11:56;;;;;;;29.23;17.20;;;1.00;99.90;;;;;;5052634;28;20195;-80
2021/03/02 05:14:22;;;;;;;25.20;13.73;;;1.00;99.90;;;;;;5056160;28;20227;-80
2021/03/02 05:16:49;;;;;;;28.20;14.77;;;1.00;99.90;;;;;;5049021;28;20204;-80
2021/03/02 05:19:16;;;;;;;25.88;14.40;;;1.60;99.90;;;;;;5037516;28;20227;-79
2021/03/02 05:21:42;;;;;;;24.30;14.60;;;1.20;99.90;;;;;;5037205;28;20547;-79
2021/03/02 05:24:09;;;;;;;31.52;16.30;;;1.70;99.90;;;;;;5036612;28;20548;-79
2021/03/02 05:26:35;;;;;;;25.48;15.05;;;1.40;99.90;;;;;;5037121;28;20849;-79
2021/03/02 05:29:01;;;;;;;31.35;16.50;;;1.40;99.90;;;;;;5039666;28;20658;-79
2021/03/02 05:31:28;;;;;;;23.67;14.02;;;1.20;99.90;;;;;;5049505;28;20210;-79
2021/03/02 05:33:54;;;;;;;21.40;13.45;;;1.10;99.90;;;;;;5042251;28;20652;-79
2021/03/02 05:36:21;;;;;;;25.67;14.95;;;1.00;99.90;;;;;;5036570;28;20300;-79
2021/03/02 05:38:47;;;;;;;23.85;15.77;;;1.00;99.90;;;;;;5036533;28;20262;-79
2021/03/02 05:41:13;;;;;;;26.77;16.15;;;0.90;99.90;;;;;;5037028;28;20666;-79
2021/03/02 05:43:40;;;;;;;25.95;14.13;;;0.80;99.90;;;;;;5036701;28;20281;-79
2021/03/02 05:46:07;;;;;;;25.63;15.30;;;0.60;99.90;;;;;;5035885;28;20622;-79
2021/03/02 05:48:33;;;;;;;25.55;15.20;;;1.00;99.90;;;;;;5036844;28;20235;-79
2021/03/02 05:51:00;;;;;;;24.75;15.05;;;0.70;99.90;;;;;;5035958;28;20627;-79
2021/03/02 05:53:27;;;;;;;24.70;16.02;;;0.80;99.90;;;;;;5037694;28;20219;-79
2021/03/02 05:55:55;;;;;;;26.63;16.83;;;0.70;99.90;;;;;;5041406;28;20238;-79
2021/03/02 05:58:21;;;;;;;28.10;16.30;;;0.70;99.90;;;;;;5051771;28;20235;-80
2021/03/02 06:00:47;;;;;;;31.15;17.00;;;0.60;99.90;;;;;;5037251;28;20204;-79
2021/03/02 06:03:14;;;;;;;28.25;17.38;;;0.70;99.90;;;;;;5035914;28;20700;-79
2021/03/02 06:05:40;;;;;;;27.77;16.48;;;0.60;99.90;;;;;;5036412;28;20199;-78
2021/03/02 06:08:08;;;;;;;30.17;16.73;;;0.60;99.90;;;;;;5041020;28;20261;-81
2021/03/02 06:10:36;;;;;;;31.00;16.10;;;0.40;99.90;;;;;;5041546;28;20208;-79
2021/03/02 06:13:03;;;;;;;25.88;15.20;;;0.60;99.90;;;;;;5040516;28;20238;-79
2021/03/02 06:15:30;;;;;;;26.23;14.45;;;0.60;99.90;;;;;;5055531;28;20211;-79
2021/03/02 06:18:11;;;;;;;26.33;16.25;;;0.50;99.90;;;;;;5048624;28;20219;-80
2021/03/02 06:20:38;;;;;;;30.40;16.50;;;0.50;99.90;;;;;;5037195;28;20286;-78
2021/03/02 06:23:22;;;;;;;30.33;16.35;;;0.40;99.90;;;;;;5038676;28;20733;-79
2021/03/02 06:25:50;;;;;;;31.17;18.10;;;0.50;99.90;;;;;;5036409;28;20602;-79
2021/03/02 06:28:34;;;;;;;33.05;17.83;;;0.50;99.90;;;;;;5036990;28;20227;-79
2021/03/02 06:31:01;;;;;;;36.10;16.77;;;0.50;99.90;;;;;;5037163;28;20191;-79
2021/03/02 06:33:27;;;;;;;29.80;17.15;;;0.70;99.90;;;;;;5046189;28;20203;-78
2021/03/02 06:35:53;;;;;;;24.40;14.30;;;0.60;99.90;;;;;;5047888;28;20294;-79
2021/03/02 06:38:27;;;;;;;29.02;17.17;;;0.60;99.90;;;;;;5041818;28;20234;-78
2021/03/02 06:40:55;;;;;;;31.02;16.25;;;0.60;99.90;;;;;;5037562;28;20188;-80
2021/03/02 06:43:43;;;;;;;26.48;16.10;;;0.60;99.90;;;;;;5037135;28;20211;-80
2021/03/02 06:46:10;;;;;;;29.17;15.55;;;0.60;99.90;;;;;;5034267;28;20227;-78
2021/03/02 06:48:50;;;;;;;28.05;17.58;;;0.50;99.90;;;;;;5037498;28;20231;-80
2021/03/02 06:51:24;;;;;;;28.52;17.98;;;1.30;99.90;;;;;;5037400;28;20183;-79
2021/03/02 06:54:02;;;;;;;30.63;19.00;;;0.50;99.90;;;;;;5037636;28;20191;-79
2021/03/02 06:56:29;;;;;;;33.85;18.08;;;0.50;99.90;;;;;;5037358;28;20203;-79
2021/03/02 06:59:09;;;;;;;30.33;18.27;;;0.40;99.90;;;;;;5037578;28;20235;-79
2021/03/02 07:01:36;;;;;;;25.02;18.10;;;0.40;99.90;;;;;;5037280;28;20192;-78
2021/03/02 07:04:09;;;;;;;33.42;18.38;;;0.40;99.90;;;;;;5037508;28;20604;-79
2021/03/02 07:06:37;;;;;;;32.33;18.42;;;0.50;99.90;;;;;;5037328;28;20195;-79
2021/03/02 07:09:04;;;;;;;34.70;18.73;;;0.50;99.90;;;;;;5041196;28;20266;-78
2021/03/02 07:11:31;;;;;;;32.58;18.48;;;0.50;99.90;;;;;;5043432;28;20222;-78
2021/03/02 07:14:00;;;;;;;29.88;18.40;;;0.50;99.90;;;;;;5045011;28;20238;-78
2021/03/02 07:16:26;;;;;;;31.63;20.00;;;0.30;99.90;;;;;;5048946;28;20238;-78
2021/03/02 07:18:57;;;;;;;32.30;17.85;;;0.50;99.90;;;;;;5056045;28;20227;-78
2021/03/02 07:21:23;;;;;;;32.95;18.88;;;0.50;99.90;;;;;;5050560;28;20191;-78
2021/03/02 07:23:52;;;;;;;34.85;20.35;;;0.50;99.90;;;;;;5044650;28;20223;-80
2021/03/02 07:26:18;;;;;;;33.25;20.27;;;0.60;99.90;;;;;;5053200;28;20203;-79
2021/03/02 07:28:45;;;;;;;31.05;17.27;;;0.50;99.90;;;;;;5054094;28;20292;-78
2021/03/02 07:31:11;;;;;;;27.25;15.80;;;0.50;99.90;;;;;;5047521;28;20203;-79
2021/03/02 07:33:40;;;;;;;24.20;16.05;;;0.50;99.90;;;;;;5042798;28;20294;-80
2021/03/02 07:36:07;;;;;;;33.88;16.98;;;0.50;99.90;;;;;;5042135;28;20235;-78
2021/03/02 07:38:33;;;;;;;23.80;15.13;;;0.70;99.90;;;;;;5046930;28;20231;-78
2021/03/02 07:40:59;;;;;;;29.88;15.70;;;0.80;99.90;;;;;;5053132;28;20226;-79
2021/03/02 07:43:30;;;;;;;26.83;14.60;;;0.80;99.90;;;;;;5052521;28;20207;-79
2021/03/02 07:45:59;;;;;;;29.92;16.20;;;0.70;99.90;;;;;;5054157;28;20210;-78
2021/03/02 07:48:27;;;;;;;27.08;16.33;;;0.70;99.90;;;;;;5050553;28;20227;-78
2021/03/02 07:51:13;;;;;;;32.55;17.80;;;0.50;99.90;;;;;;5050010;28;20211;-79
2021/03/02 07:53:39;;;;;;;32.55;17.55;;;0.60;99.90;;;;;;5049037;28;20200;-77
2021/03/02 07:56:32;;;;;;;32.97;18.90;;;0.70;99.90;;;;;;5050338;28;20219;-78
2021/03/02 07:59:20;;;;;;;32.58;17.17;;;0.60;99.90;;;;;;5013679;28;20223;-78
2021/03/02 08:02:17;;;;;;;30.83;18.77;;;0.60;99.90;;;;;;5048457;28;20199;-77
2021/03/02 08:04:45;;;;;;;34.22;16.48;;;0.80;99.90;;;;;;5052176;28;20210;-79
2021/03/02 08:07:20;;;;;;;29.60;17.73;;;0.80;99.90;;;;;;5048144;28;20204;-77
2021/03/02 08:09:46;;;;;;;46.00;21.98;;;0.90;99.90;;;;;;5051802;28;20184;-78
2021/03/02 08:12:27;;;;;;;49.00;26.35;;;0.90;99.90;;;;;;5047406;28;20211;-79
2021/03/02 08:14:54;;;;;;;40.08;20.67;;;1.00;99.90;;;;;;5053653;28;20223;-79
2021/03/02 08:17:27;;;;;;;43.67;24.45;;;1.10;99.90;;;;;;5050150;28;20223;-79
2021/03/02 08:20:04;;;;;;;61.00;27.95;;;1.50;99.90;;;;;;5050567;28;20203;-79
2021/03/02 08:22:58;;;;;;;48.58;25.75;;;1.20;99.90;;;;;;5049498;28;20198;-79
2021/03/02 08:25:27;;;;;;;46.42;22.10;;;1.30;99.90;;;;;;5051710;28;20533;-78
2021/03/02 08:27:56;;;;;;;37.95;21.33;;;1.40;99.90;;;;;;5052966;28;20299;-80
2021/03/02 08:30:24;;;;;;;46.97;24.40;;;1.30;99.90;;;;;;5048927;28;20231;-78
2021/03/02 08:32:52;;;;;;;39.05;21.65;;;1.70;99.90;;;;;;5048582;28;20218;-80
2021/03/02 08:35:20;;;;;;;44.63;22.48;;;1.80;99.90;;;;;;5046998;28;20219;-79
2021/03/02 08:37:48;;;;;;;37.90;21.08;;;2.00;99.90;;;;;;5044310;28;20224;-79
2021/03/02 08:40:18;;;;;;;41.17;20.88;;;1.80;99.90;;;;;;5042915;28;20250;-78
2021/03/02 08:43:02;;;;;;;41.88;23.15;;;1.90;99.90;;;;;;5042482;28;20208;-79
2021/03/02 08:45:29;;;;;;;52.35;28.67;;;2.20;99.90;;;;;;5041370;28;20206;-80
2021/03/02 08:48:24;;;;;;;52.05;28.10;;;2.40;99.90;;;;;;5042013;28;20235;-80
2021/03/02 08:50:53;;;;;;;60.00;29.27;;;2.50;99.90;;;;;;5044913;28;20226;-79
2021/03/02 08:53:34;;;;;;;56.38;28.88;;;2.60;99.90;;;;;;5046057;28;20234;-79
2021/03/02 08:56:03;;;;;;;61.08;31.23;;;2.80;99.90;;;;;;5041289;28;20220;-79
2021/03/02 08:58:31;;;;;;;61.53;30.45;;;2.90;99.90;;;;;;5050591;28;20233;-79
2021/03/02 09:01:05;;;;;;;60.28;30.50;;;3.10;99.90;;;;;;5054207;28;20214;-80
2021/03/02 09:03:36;;;;;;;71.60;32.70;;;3.10;99.90;;;;;;5050723;28;20207;-81
2021/03/02 09:06:26;;;;;;;73.28;32.10;;;3.10;99.90;;;;;;5044985;28;20204;-79
2021/03/02 09:09:00;;;;;;;81.10;36.00;;;2.90;99.90;;;;;;5047279;22;20323;-80
2021/03/02 09:11:39;;;;;;;64.78;32.35;;;2.80;99.90;;;;;;5023275;28;20232;-80
2021/03/02 09:14:14;;;;;;;64.45;32.03;;;2.80;99.90;;;;;;5025078;28;20195;-79
2021/03/02 09:16:47;;;;;;;75.60;33.80;;;3.20;99.90;;;;;;5023817;28;20184;-80
2021/03/02 09:19:27;;;;;;;68.50;32.92;;;3.00;99.90;;;;;;5023194;28;20228;-79
2021/03/02 09:21:56;;;;;;;68.65;30.27;;;3.10;99.90;;;;;;5054963;22;20238;-84
2021/03/02 09:24:25;;;;;;;56.00;30.58;;;3.00;99.90;;;;;;5056251;28;20208;-82
2021/03/02 09:26:53;;;;;;;66.20;33.40;;;3.30;99.90;;;;;;5052510;28;20270;-84
2021/03/02 09:29:20;;;;;;;74.88;32.83;;;3.30;99.90;;;;;;5053550;28;20211;-84
2021/03/02 09:31:47;;;;;;;68.45;32.90;;;3.40;99.90;;;;;;5054979;28;20224;-84
2021/03/02 09:34:14;;;;;;;76.93;34.63;;;3.50;99.90;;;;;;5051082;28;20218;-83
2021/03/02 09:36:41;;;;;;;61.22;28.30;;;3.50;99.90;;;;;;5046447;28;20215;-84
2021/03/02 09:39:23;;;;;;;61.75;29.60;;;3.60;99.90;;;;;;5045649;28;20201;-84
2021/03/02 09:41:50;;;;;;;67.43;29.15;;;3.60;99.90;;;;;;5044179;28;20227;-84
2021/03/02 09:44:21;;;;;;;63.65;32.05;;;3.60;99.90;;;;;;5046308;28;20212;-84
2021/03/02 09:46:49;;;;;;;67.10;33.28;;;3.50;99.90;;;;;;5056719;28;20169;-83
2021/03/02 09:49:39;;;;;;;51.83;30.45;;;3.50;99.90;;;;;;5054096;28;20257;-84
2021/03/02 09:52:07;;;;;;;48.72;27.60;;;3.60;99.90;;;;;;5050723;28;20235;-83
2021/03/02 09:54:34;;;;;;;53.78;27.85;;;3.50;99.90;;;;;;5049269;28;20215;-84
2021/03/02 09:57:02;;;;;;;56.03;28.83;;;3.70;99.90;;;;;;5046755;28;20208;-83
2021/03/02 09:59:30;;;;;;;57.75;27.05;;;4.00;99.90;;;;;;5042628;28;20203;-85
2021/03/02 10:01:57;;;;;;;55.95;28.98;;;4.20;99.90;;;;;;5042265;28;20227;-85
2021/03/02 10:04:25;;;;;;;54.60;28.20;;;4.20;99.90;;;;;;5042506;28;20207;-84
2021/03/02 10:06:51;;;;;;;57.28;28.60;;;4.20;99.90;;;;;;5040252;28;20210;-84
2021/03/02 10:09:25;;;;;;;63.50;29.33;;;4.30;99.90;;;;;;5050519;28;20226;-83
2021/03/02 10:12:11;;;;;;;61.33;28.98;;;4.30;99.90;;;;;;5040888;28;20230;-84
2021/03/02 10:14:38;;;;;;;65.18;31.50;;;4.60;99.90;;;;;;5037071;28;20222;-85
2021/03/02 10:17:05;;;;;;;63.80;30.85;;;;;;;;;;5037252;28;20207;-84
2021/03/02 10:19:31;;;;;;;59.00;30.67;;;4.60;99.90;;;;;;5038179;28;20709;-85
2021/03/02 10:21:59;;;;;;;56.22;30.20;;;4.70;99.90;;;;;;5038680;28;20235;-84
2021/03/02 10:24:28;;;;;;;55.30;30.20;;;4.80;99.90;;;;;;5040157;28;20207;-83
2021/03/02 10:26:55;;;;;;;60.75;31.70;;;5.00;99.90;;;;;;5048397;28;20677;-83
2021/03/02 10:29:22;;;;;;;66.18;31.15;;;5.00;99.90;;;;;;5037852;28;20208;-83
2021/03/02 10:31:48;;;;;;;56.22;28.80;;;5.20;99.90;;;;;;5040805;28;20249;-84
2021/03/02 10:34:15;;;;;;;62.17;31.40;;;5.20;99.90;;;;;;5041595;28;20208;-84
2021/03/02 10:36:43;;;;;;;54.95;30.05;;;5.20;99.90;;;;;;5040933;28;20211;-85
2021/03/02 10:39:11;;;;;;;55.42;27.50;;;5.10;99.90;;;;;;5042237;28;20208;-84
2021/03/02 10:41:38;;;;;;;59.28;31.45;;;5.30;99.90;;;;;;5042030;28;20589;-85
2021/03/02 10:44:05;;;;;;;55.33;30.40;;;5.40;99.90;;;;;;5040790;28;20207;-84
2021/03/02 10:46:32;;;;;;;54.70;30.25;;;5.60;99.90;;;;;;5043655;28;20207;-84
2021/03/02 10:48:59;;;;;;;50.78;29.45;;;5.60;99.90;;;;;;5045268;28;20200;-85
2021/03/02 10:51:26;;;;;;;41.55;25.80;;;5.70;99.90;;;;;;5045063;28;20306;-83
2021/03/02 10:53:53;;;;;;;43.70;25.67;;;5.80;99.90;;;;;;5047117;28;20203;-85
2021/03/02 10:56:19;;;;;;;48.85;25.85;;;5.80;99.90;;;;;;5048081;28;20230;-84
2021/03/02 10:58:47;;;;;;;46.03;24.73;;;5.80;99.90;;;;;;5046709;28;20211;-85
2021/03/02 11:01:14;;;;;;;42.08;24.58;;;5.80;99.90;;;;;;5048381;28;20291;-84
2021/03/02 11:03:42;;;;;;;43.78;24.75;;;5.80;99.90;;;;;;5052174;28;20207;-84
2021/03/02 11:06:08;;;;;;;48.50;26.70;;;6.00;99.90;;;;;;5058629;28;20207;-85
2021/03/02 11:08:34;;;;;;;111.32;53.92;;;6.20;99.90;;;;;;5059857;28;20183;-83
2021/03/02 11:11:00;;;;;;;52.22;25.65;;;6.30;99.90;;;;;;5052895;28;20227;-83
2021/03/02 11:13:26;;;;;;;43.30;24.40;;;6.40;99.90;;;;;;5046183;28;20214;-84
2021/03/02 11:15:53;;;;;;;46.90;26.08;;;6.50;99.90;;;;;;5044717;28;20223;-85
2021/03/02 11:18:19;;;;;;;48.05;29.00;;;6.70;99.90;;;;;;5046782;28;20208;-84
2021/03/02 11:20:45;;;;;;;44.35;23.90;;;6.60;99.90;;;;;;5043744;28;20283;-83
2021/03/02 11:23:13;;;;;;;54.25;26.05;;;6.80;99.90;;;;;;5044036;28;20192;-85
2021/03/02 11:25:39;;;;;;;39.42;25.15;;;6.90;99.90;;;;;;5044030;28;20226;-84
2021/03/02 11:28:11;;;;;;;49.17;27.00;;;7.10;99.90;;;;;;5050187;28;20211;-86
2021/03/02 11:30:38;;;;;;;42.65;25.23;;;7.20;99.90;;;;;;5052682;28;20222;-83
2021/03/02 11:33:06;;;;;;;48.42;26.42;;;7.20;99.90;;;;;;5047977;28;20203;-84
2021/03/02 11:35:33;;;;;;;44.75;26.35;;;7.30;99.90;;;;;;5045532;28;20228;-84
2021/03/02 11:38:00;;;;;;;42.70;25.60;;;7.50;99.90;;;;;;5049688;28;20218;-85
2021/03/02 11:40:27;;;;;;;36.10;21.48;;;7.60;99.90;;;;;;5047461;28;20230;-83
2021/03/02 11:42:53;;;;;;;41.00;24.00;;;7.60;99.90;;;;;;5047567;28;20200;-84
2021/03/02 11:45:20;;;;;;;51.00;29.40;;;7.70;99.90;;;;;;5054291;28;20208;-84
2021/03/02 11:47:47;;;;;;;43.33;23.92;;;7.90;99.90;;;;;;5050623;28;20238;-84
2021/03/02 11:50:15;;;;;;;36.38;22.88;;;7.90;99.90;;;;;;5049500;28;20207;-84
2021/03/02 11:52:41;;;;;;;38.85;24.15;;;8.00;99.90;;;;;;5048192;28;20227;-84
2021/03/02 11:55:09;;;;;;;34.55;20.20;;;8.00;99.90;;;;;;5054805;28;20258;-84
2021/03/02 11:57:35;;;;;;;40.30;22.20;;;8.10;99.90;;;;;;5056685;28;20192;-83
2021/03/02 12:00:02;;;;;;;34.80;20.70;;;;;;;;;;5059063;28;20204;-84
2021/03/02 12:02:28;;;;;;;36.65;21.30;;;8.30;99.90;;;;;;5058871;28;20223;-84
2021/03/02 12:04:54;;;;;;;38.17;21.95;;;8.30;99.90;;;;;;5058607;28;20203;-83
2021/03/02 12:07:21;;;;;;;34.45;21.40;;;8.30;99.90;;;;;;5058241;28;20203;-83
2021/03/02 12:09:47;;;;;;;40.30;20.83;;;8.50;99.90;;;;;;5057890;28;20192;-83
2021/03/02 12:12:13;;;;;;;34.08;20.30;;;8.50;99.90;;;;;;5058179;28;20709;-83
2021/03/02 12:14:40;;;;;;;38.35;23.58;;;8.40;99.90;;;;;;5058664;28;20212;-83
2021/03/02 12:17:06;;;;;;;39.60;23.13;;;8.60;99.90;;;;;;5053766;28;20204;-83
2021/03/02 12:19:32;;;;;;;38.90;23.30;;;8.70;99.90;;;;;;5053900;28;20215;-84
2021/03/02 12:21:58;;;;;;;42.08;22.35;;;8.70;99.90;;;;;;5054309;28;21107;-84
2021/03/02 12:24:25;;;;;;;35.53;22.23;;;8.90;99.90;;;;;;5056677;28;20203;-83
2021/03/02 12:26:51;;;;;;;35.53;20.43;;;8.90;99.90;;;;;;5047901;28;20207;-84
2021/03/02 12:29:18;;;;;;;55.90;25.10;;;9.00;99.90;;;;;;5046006;28;20867;-85
2021/03/02 12:31:44;;;;;;;33.60;22.20;;;9.10;99.90;;;;;;5044731;28;20464;-84
2021/03/02 12:34:21;;;;;;;39.42;21.83;;;9.10;99.90;;;;;;5054263;28;20427;-86
2021/03/02 12:36:48;;;;;;;44.57;21.63;;;9.30;99.90;;;;;;5057747;28;20212;-83
2021/03/02 12:39:14;;;;;;;40.20;23.93;;;9.30;99.90;;;;;;5058539;28;20446;-84
2021/03/02 12:41:41;;;;;;;35.23;21.57;;;9.40;99.90;;;;;;5054035;28;20463;-84
2021/03/02 12:44:07;;;;;;;38.50;21.93;;;;;;;;;;5052505;28;20465;-85
2021/03/02 12:46:34;;;;;;;39.47;20.83;;;9.80;99.90;;;;;;5046369;28;20491;-84